sensor_id;sensor_type;location;lat;lon;timestamp;pressure;altitude;pressure_sealevel;temperature;humidity
5954;BME280;3002;42.642;24.812;2023-04-30T00:01:37;96162.66;;;16.81;60.12
5954;BME280;3002;42.642;24.812;2023-04-30T00:04:02;96166.19;;;16.94;59.77
5954;BME280;3002;42.642;24.812;2023-04-30T00:06:28;96167.09;;;16.98;59.89
5954;BME280;3002;42.642;24.812;2023-04-30T00:08:53;96176.13;;;17.02;60.44
5954;BME280;3002;42.642;24.812;2023-04-30T00:11:19;96166.53;;;16.92;60.09
5954;BME280;3002;42.642;24.812;2023-04-30T00:13:44;96153.41;;;16.94;60.28
5954;BME280;3002;42.642;24.812;2023-04-30T00:16:10;96172.97;;;17.00;61.41
5954;BME280;3002;42.642;24.812;2023-04-30T00:18:36;96177.81;;;16.94;62.58
5954;BME280;3002;42.642;24.812;2023-04-30T00:21:02;96151.28;;;16.33;64.20
5954;BME280;3002;42.642;24.812;2023-04-30T00:23:27;96142.06;;;16.47;64.45
5954;BME280;3002;42.642;24.812;2023-04-30T00:25:53;96153.94;;;16.54;64.32
5954;BME280;3002;42.642;24.812;2023-04-30T00:28:18;96143.94;;;15.92;67.68
5954;BME280;3002;42.642;24.812;2023-04-30T00:30:44;96169.53;;;16.57;66.12
5954;BME280;3002;42.642;24.812;2023-04-30T00:33:10;96166.94;;;16.61;66.51
5954;BME280;3002;42.642;24.812;2023-04-30T00:35:35;96143.59;;;16.36;67.41
5954;BME280;3002;42.642;24.812;2023-04-30T00:38:01;96152.44;;;16.24;69.51
5954;BME280;3002;42.642;24.812;2023-04-30T00:40:26;96171.06;;;16.46;70.15
5954;BME280;3002;42.642;24.812;2023-04-30T00:42:52;96168.56;;;16.41;69.46
5954;BME280;3002;42.642;24.812;2023-04-30T00:45:23;96144.00;;;16.46;68.45
5954;BME280;3002;42.642;24.812;2023-04-30T00:47:48;96141.56;;;16.32;69.98
5954;BME280;3002;42.642;24.812;2023-04-30T00:50:14;96173.22;;;16.53;70.07
5954;BME280;3002;42.642;24.812;2023-04-30T00:52:43;96152.66;;;16.40;71.93
5954;BME280;3002;42.642;24.812;2023-04-30T00:55:11;96137.59;;;16.30;72.32
5954;BME280;3002;42.642;24.812;2023-04-30T00:57:37;96168.63;;;16.74;69.97
5954;BME280;3002;42.642;24.812;2023-04-30T01:00:04;96136.22;;;16.45;69.65
5954;BME280;3002;42.642;24.812;2023-04-30T01:02:34;96153.97;;;16.33;71.31
5954;BME280;3002;42.642;24.812;2023-04-30T01:05:01;96141.63;;;16.45;69.88
5954;BME280;3002;42.642;24.812;2023-04-30T01:07:27;96155.16;;;16.24;69.77
5954;BME280;3002;42.642;24.812;2023-04-30T01:09:53;96158.00;;;16.27;70.21
5954;BME280;3002;42.642;24.812;2023-04-30T01:12:38;96167.28;;;16.59;71.09
5954;BME280;3002;42.642;24.812;2023-04-30T01:15:27;96175.81;;;16.49;73.48
5954;BME280;3002;42.642;24.812;2023-04-30T01:18:17;96162.94;;;16.04;73.20
5954;BME280;3002;42.642;24.812;2023-04-30T01:20:53;96168.44;;;16.17;70.25
5954;BME280;3002;42.642;24.812;2023-04-30T01:27:05;96161.56;;;16.40;66.87
5954;BME280;3002;42.642;24.812;2023-04-30T01:29:33;96160.25;;;16.25;66.44
5954;BME280;3002;42.642;24.812;2023-04-30T01:32:01;96135.75;;;15.80;66.54
5954;BME280;3002;42.642;24.812;2023-04-30T01:34:28;96160.50;;;16.32;64.64
5954;BME280;3002;42.642;24.812;2023-04-30T01:37:05;96163.88;;;16.50;65.27
5954;BME280;3002;42.642;24.812;2023-04-30T01:42:32;96163.44;;;16.60;68.98
5954;BME280;3002;42.642;24.812;2023-04-30T01:50:43;96159.84;;;16.36;70.98
5954;BME280;3002;42.642;24.812;2023-04-30T01:53:39;96145.84;;;16.13;69.73
5954;BME280;3002;42.642;24.812;2023-04-30T01:56:10;96164.59;;;16.18;70.96
5954;BME280;3002;42.642;24.812;2023-04-30T01:58:37;96142.28;;;16.00;70.44
5954;BME280;3002;42.642;24.812;2023-04-30T02:01:04;96132.25;;;16.00;69.33
5954;BME280;3002;42.642;24.812;2023-04-30T02:03:30;96150.34;;;16.09;71.00
5954;BME280;3002;42.642;24.812;2023-04-30T02:05:56;96146.13;;;15.99;73.20
5954;BME280;3002;42.642;24.812;2023-04-30T02:08:23;96140.97;;;15.85;72.54
5954;BME280;3002;42.642;24.812;2023-04-30T02:10:49;96143.81;;;15.89;73.80
5954;BME280;3002;42.642;24.812;2023-04-30T02:13:14;96148.19;;;16.02;74.13
5954;BME280;3002;42.642;24.812;2023-04-30T02:15:40;96164.00;;;15.91;76.03
5954;BME280;3002;42.642;24.812;2023-04-30T02:18:05;96137.69;;;15.79;76.92
5954;BME280;3002;42.642;24.812;2023-04-30T02:20:31;96139.31;;;15.72;76.23
5954;BME280;3002;42.642;24.812;2023-04-30T02:22:56;96153.13;;;15.70;75.53
5954;BME280;3002;42.642;24.812;2023-04-30T02:25:22;96158.44;;;15.67;76.52
5954;BME280;3002;42.642;24.812;2023-04-30T02:27:47;96152.31;;;15.78;74.27
5954;BME280;3002;42.642;24.812;2023-04-30T02:30:14;96152.63;;;15.77;76.66
5954;BME280;3002;42.642;24.812;2023-04-30T02:32:40;96149.91;;;15.77;76.79
5954;BME280;3002;42.642;24.812;2023-04-30T02:35:06;96160.97;;;15.63;77.10
5954;BME280;3002;42.642;24.812;2023-04-30T02:37:31;96132.88;;;15.47;75.69
5954;BME280;3002;42.642;24.812;2023-04-30T02:39:57;96141.81;;;15.77;73.53
5954;BME280;3002;42.642;24.812;2023-04-30T02:42:22;96125.13;;;15.75;70.90
5954;BME280;3002;42.642;24.812;2023-04-30T02:44:48;96168.03;;;16.06;69.92
5954;BME280;3002;42.642;24.812;2023-04-30T02:47:13;96133.44;;;15.70;70.46
5954;BME280;3002;42.642;24.812;2023-04-30T02:49:39;96129.47;;;15.38;75.88
5954;BME280;3002;42.642;24.812;2023-04-30T02:52:04;96131.66;;;15.44;73.37
5954;BME280;3002;42.642;24.812;2023-04-30T02:54:31;96160.63;;;15.94;71.30
5954;BME280;3002;42.642;24.812;2023-04-30T02:56:56;96143.53;;;15.82;74.27
5954;BME280;3002;42.642;24.812;2023-04-30T02:59:22;96134.00;;;15.84;73.36
5954;BME280;3002;42.642;24.812;2023-04-30T03:01:47;96140.78;;;16.11;71.33
5954;BME280;3002;42.642;24.812;2023-04-30T03:04:13;96151.81;;;16.27;71.20
5954;BME280;3002;42.642;24.812;2023-04-30T03:06:41;96114.53;;;16.12;69.47
5954;BME280;3002;42.642;24.812;2023-04-30T03:09:06;96156.28;;;16.23;70.69
5954;BME280;3002;42.642;24.812;2023-04-30T03:11:32;96134.00;;;15.84;72.90
5954;BME280;3002;42.642;24.812;2023-04-30T03:14:01;96146.19;;;15.90;73.19
5954;BME280;3002;42.642;24.812;2023-04-30T03:16:27;96145.81;;;15.71;75.98
5954;BME280;3002;42.642;24.812;2023-04-30T03:18:55;96159.91;;;15.85;76.54
5954;BME280;3002;42.642;24.812;2023-04-30T03:21:20;96174.06;;;15.82;76.20
5954;BME280;3002;42.642;24.812;2023-04-30T03:23:45;96133.78;;;15.89;74.93
5954;BME280;3002;42.642;24.812;2023-04-30T03:26:11;96169.09;;;16.14;74.59
5954;BME280;3002;42.642;24.812;2023-04-30T03:28:36;96173.16;;;15.99;76.63
5954;BME280;3002;42.642;24.812;2023-04-30T03:31:02;96147.63;;;15.88;76.35
5954;BME280;3002;42.642;24.812;2023-04-30T03:33:31;96158.28;;;15.63;80.13
5954;BME280;3002;42.642;24.812;2023-04-30T03:35:57;96176.88;;;15.56;81.16
5954;BME280;3002;42.642;24.812;2023-04-30T03:38:22;96175.28;;;15.64;80.03
5954;BME280;3002;42.642;24.812;2023-04-30T03:40:48;96184.38;;;15.89;77.00
5954;BME280;3002;42.642;24.812;2023-04-30T03:43:13;96150.66;;;15.57;77.06
5954;BME280;3002;42.642;24.812;2023-04-30T03:45:38;96175.66;;;15.45;81.11
5954;BME280;3002;42.642;24.812;2023-04-30T03:48:04;96187.38;;;15.58;78.21
5954;BME280;3002;42.642;24.812;2023-04-30T03:50:30;96177.28;;;15.75;76.65
5954;BME280;3002;42.642;24.812;2023-04-30T03:52:55;96178.69;;;15.82;75.58
5954;BME280;3002;42.642;24.812;2023-04-30T03:55:21;96194.13;;;15.81;77.85
5954;BME280;3002;42.642;24.812;2023-04-30T03:57:46;96171.00;;;15.63;78.40
5954;BME280;3002;42.642;24.812;2023-04-30T04:00:12;96203.25;;;15.97;77.16
5954;BME280;3002;42.642;24.812;2023-04-30T04:02:38;96198.78;;;16.01;75.73
5954;BME280;3002;42.642;24.812;2023-04-30T04:05:04;96173.75;;;15.84;77.67
5954;BME280;3002;42.642;24.812;2023-04-30T04:07:29;96179.16;;;15.84;77.89
5954;BME280;3002;42.642;24.812;2023-04-30T04:09:55;96201.28;;;15.77;77.71
5954;BME280;3002;42.642;24.812;2023-04-30T04:12:21;96175.78;;;15.66;75.95
5954;BME280;3002;42.642;24.812;2023-04-30T04:14:46;96195.75;;;15.73;75.47
5954;BME280;3002;42.642;24.812;2023-04-30T04:17:12;96208.84;;;15.16;77.33
5954;BME280;3002;42.642;24.812;2023-04-30T04:19:39;96202.50;;;15.88;73.91
5954;BME280;3002;42.642;24.812;2023-04-30T04:22:05;96206.69;;;16.48;70.28
5954;BME280;3002;42.642;24.812;2023-04-30T04:24:31;96202.81;;;16.37;71.56
5954;BME280;3002;42.642;24.812;2023-04-30T04:26:58;96210.53;;;17.01;68.64
5954;BME280;3002;42.642;24.812;2023-04-30T04:29:24;96220.56;;;17.22;68.02
5954;BME280;3002;42.642;24.812;2023-04-30T04:31:50;96183.72;;;17.21;67.32
5954;BME280;3002;42.642;24.812;2023-04-30T04:34:15;96216.53;;;17.52;66.58
5954;BME280;3002;42.642;24.812;2023-04-30T04:36:41;96190.75;;;17.34;65.75
5954;BME280;3002;42.642;24.812;2023-04-30T04:39:07;96215.56;;;17.81;64.02
5954;BME280;3002;42.642;24.812;2023-04-30T04:41:33;96206.06;;;18.00;62.43
5954;BME280;3002;42.642;24.812;2023-04-30T04:44:02;96193.03;;;18.17;60.93
5954;BME280;3002;42.642;24.812;2023-04-30T04:46:30;96219.97;;;18.91;58.38
5954;BME280;3002;42.642;24.812;2023-04-30T04:48:56;96191.66;;;18.52;59.24
5954;BME280;3002;42.642;24.812;2023-04-30T04:51:22;96208.00;;;19.08;56.89
5954;BME280;3002;42.642;24.812;2023-04-30T04:53:48;96205.03;;;19.29;56.01
5954;BME280;3002;42.642;24.812;2023-04-30T04:56:13;96182.31;;;19.52;54.41
5954;BME280;3002;42.642;24.812;2023-04-30T04:58:40;96180.19;;;20.09;53.96
5954;BME280;3002;42.642;24.812;2023-04-30T05:01:12;96209.94;;;20.53;52.56
5954;BME280;3002;42.642;24.812;2023-04-30T05:03:38;96183.81;;;20.91;49.22
5954;BME280;3002;42.642;24.812;2023-04-30T05:06:04;96210.94;;;21.03;48.16
5954;BME280;3002;42.642;24.812;2023-04-30T05:08:30;96184.50;;;20.45;49.65
5954;BME280;3002;42.642;24.812;2023-04-30T05:10:56;96187.38;;;21.14;49.35
5954;BME280;3002;42.642;24.812;2023-04-30T05:13:22;96202.28;;;20.58;51.44
5954;BME280;3002;42.642;24.812;2023-04-30T05:15:51;96190.84;;;19.67;54.45
5954;BME280;3002;42.642;24.812;2023-04-30T05:18:17;96205.63;;;20.17;54.52
5954;BME280;3002;42.642;24.812;2023-04-30T05:20:42;96205.34;;;20.57;51.61
5954;BME280;3002;42.642;24.812;2023-04-30T05:23:08;96194.56;;;21.03;50.87
5954;BME280;3002;42.642;24.812;2023-04-30T05:25:34;96213.50;;;21.57;49.40
5954;BME280;3002;42.642;24.812;2023-04-30T05:28:00;96219.13;;;21.68;47.82
5954;BME280;3002;42.642;24.812;2023-04-30T05:30:26;96205.13;;;20.85;50.97
5954;BME280;3002;42.642;24.812;2023-04-30T05:32:52;96203.34;;;21.35;50.74
5954;BME280;3002;42.642;24.812;2023-04-30T05:35:18;96216.34;;;18.87;57.65
5954;BME280;3002;42.642;24.812;2023-04-30T05:37:44;96203.81;;;20.40;54.47
5954;BME280;3002;42.642;24.812;2023-04-30T05:40:10;96187.09;;;21.19;52.39
5954;BME280;3002;42.642;24.812;2023-04-30T05:42:36;96214.75;;;19.73;54.63
5954;BME280;3002;42.642;24.812;2023-04-30T05:45:02;96205.22;;;20.89;51.00
5954;BME280;3002;42.642;24.812;2023-04-30T05:47:28;96198.41;;;20.60;52.08
5954;BME280;3002;42.642;24.812;2023-04-30T05:49:53;96201.63;;;20.65;52.45
5954;BME280;3002;42.642;24.812;2023-04-30T05:52:19;96194.22;;;21.27;50.80
5954;BME280;3002;42.642;24.812;2023-04-30T05:54:44;96184.50;;;21.72;49.69
5954;BME280;3002;42.642;24.812;2023-04-30T05:57:12;96189.91;;;21.03;51.56
5954;BME280;3002;42.642;24.812;2023-04-30T05:59:37;96207.94;;;20.89;52.30
5954;BME280;3002;42.642;24.812;2023-04-30T06:02:03;96204.25;;;20.81;52.76
5954;BME280;3002;42.642;24.812;2023-04-30T06:04:28;96189.16;;;20.29;54.40
5954;BME280;3002;42.642;24.812;2023-04-30T06:06:54;96205.25;;;21.31;50.66
5954;BME280;3002;42.642;24.812;2023-04-30T06:09:20;96210.31;;;20.36;54.32
5954;BME280;3002;42.642;24.812;2023-04-30T06:11:46;96214.72;;;20.98;51.81
5954;BME280;3002;42.642;24.812;2023-04-30T06:14:15;96208.44;;;22.62;47.31
5954;BME280;3002;42.642;24.812;2023-04-30T06:16:41;96213.09;;;23.25;46.93
5954;BME280;3002;42.642;24.812;2023-04-30T06:19:07;96211.31;;;24.39;43.93
5954;BME280;3002;42.642;24.812;2023-04-30T06:21:32;96201.53;;;20.62;50.85
5954;BME280;3002;42.642;24.812;2023-04-30T06:23:58;96208.00;;;20.53;51.68
5954;BME280;3002;42.642;24.812;2023-04-30T06:26:24;96205.00;;;20.78;50.12
5954;BME280;3002;42.642;24.812;2023-04-30T06:28:49;96204.75;;;20.87;49.63
5954;BME280;3002;42.642;24.812;2023-04-30T06:31:15;96215.47;;;19.42;52.53
5954;BME280;3002;42.642;24.812;2023-04-30T06:33:40;96215.53;;;21.64;47.57
5954;BME280;3002;42.642;24.812;2023-04-30T06:36:06;96202.56;;;20.73;49.97
5954;BME280;3002;42.642;24.812;2023-04-30T06:38:31;96196.44;;;20.99;48.78
5954;BME280;3002;42.642;24.812;2023-04-30T06:40:57;96207.50;;;21.06;48.68
5954;BME280;3002;42.642;24.812;2023-04-30T06:43:22;96209.06;;;20.49;49.38
5954;BME280;3002;42.642;24.812;2023-04-30T06:45:48;96210.97;;;22.78;44.76
5954;BME280;3002;42.642;24.812;2023-04-30T06:48:13;96195.81;;;23.58;41.96
5954;BME280;3002;42.642;24.812;2023-04-30T06:50:39;96187.91;;;22.45;44.63
5954;BME280;3002;42.642;24.812;2023-04-30T06:53:14;96214.22;;;24.06;40.59
5954;BME280;3002;42.642;24.812;2023-04-30T06:55:40;96201.41;;;20.39;48.60
5954;BME280;3002;42.642;24.812;2023-04-30T06:58:06;96205.06;;;23.06;44.89
5954;BME280;3002;42.642;24.812;2023-04-30T07:00:32;96198.66;;;23.28;41.87
5954;BME280;3002;42.642;24.812;2023-04-30T07:02:58;96198.69;;;22.34;42.95
5954;BME280;3002;42.642;24.812;2023-04-30T07:05:29;96193.88;;;20.48;47.30
5954;BME280;3002;42.642;24.812;2023-04-30T07:07:56;96169.09;;;23.92;40.44
5954;BME280;3002;42.642;24.812;2023-04-30T07:10:21;96202.94;;;24.91;38.93
5954;BME280;3002;42.642;24.812;2023-04-30T07:12:47;96193.94;;;24.94;38.86
5954;BME280;3002;42.642;24.812;2023-04-30T07:15:13;96206.16;;;25.11;37.89
5954;BME280;3002;42.642;24.812;2023-04-30T07:17:38;96190.97;;;25.59;37.82
5954;BME280;3002;42.642;24.812;2023-04-30T07:20:06;96198.66;;;24.97;39.63
5954;BME280;3002;42.642;24.812;2023-04-30T07:22:32;96187.03;;;22.98;42.03
5954;BME280;3002;42.642;24.812;2023-04-30T07:24:58;96209.56;;;22.57;43.46
5954;BME280;3002;42.642;24.812;2023-04-30T07:27:25;96195.31;;;21.91;44.78
5954;BME280;3002;42.642;24.812;2023-04-30T07:29:51;96198.41;;;20.60;47.23
5954;BME280;3002;42.642;24.812;2023-04-30T07:32:16;96209.78;;;19.95;49.97
5954;BME280;3002;42.642;24.812;2023-04-30T07:34:42;96213.34;;;20.15;50.13
5954;BME280;3002;42.642;24.812;2023-04-30T07:37:08;96214.38;;;21.00;49.06
5954;BME280;3002;42.642;24.812;2023-04-30T07:39:34;96208.69;;;21.74;47.07
5954;BME280;3002;42.642;24.812;2023-04-30T07:42:01;96192.31;;;20.66;48.34
5954;BME280;3002;42.642;24.812;2023-04-30T07:44:28;96223.81;;;21.25;48.16
5954;BME280;3002;42.642;24.812;2023-04-30T07:46:54;96220.09;;;21.14;47.72
5954;BME280;3002;42.642;24.812;2023-04-30T07:49:19;96219.72;;;21.16;47.56
5954;BME280;3002;42.642;24.812;2023-04-30T07:51:45;96224.50;;;21.87;46.97
5954;BME280;3002;42.642;24.812;2023-04-30T07:54:11;96213.16;;;20.97;47.59
5954;BME280;3002;42.642;24.812;2023-04-30T07:56:36;96230.16;;;20.71;48.20
5954;BME280;3002;42.642;24.812;2023-04-30T07:59:02;96207.47;;;20.13;49.42
5954;BME280;3002;42.642;24.812;2023-04-30T08:01:30;96211.25;;;21.21;48.34
5954;BME280;3002;42.642;24.812;2023-04-30T08:03:57;96221.75;;;22.67;44.44
5954;BME280;3002;42.642;24.812;2023-04-30T08:06:22;96215.25;;;23.46;43.69
5954;BME280;3002;42.642;24.812;2023-04-30T08:08:48;96209.34;;;22.43;44.84
5954;BME280;3002;42.642;24.812;2023-04-30T08:11:13;96203.44;;;23.38;43.10
5954;BME280;3002;42.642;24.812;2023-04-30T08:13:40;96219.25;;;25.78;39.25
5954;BME280;3002;42.642;24.812;2023-04-30T08:16:06;96218.34;;;25.13;40.19
5954;BME280;3002;42.642;24.812;2023-04-30T08:18:32;96211.00;;;26.03;37.52
5954;BME280;3002;42.642;24.812;2023-04-30T08:20:59;96207.09;;;25.89;37.47
5954;BME280;3002;42.642;24.812;2023-04-30T08:23:26;96201.84;;;25.09;39.56
5954;BME280;3002;42.642;24.812;2023-04-30T08:25:52;96197.75;;;21.28;45.88
5954;BME280;3002;42.642;24.812;2023-04-30T08:28:17;96181.47;;;22.60;43.61
5954;BME280;3002;42.642;24.812;2023-04-30T08:30:43;96186.81;;;24.71;39.42
5954;BME280;3002;42.642;24.812;2023-04-30T08:33:09;96203.44;;;25.11;40.51
5954;BME280;3002;42.642;24.812;2023-04-30T08:35:35;96188.25;;;25.95;38.09
5954;BME280;3002;42.642;24.812;2023-04-30T08:38:00;96185.81;;;26.40;37.30
5954;BME280;3002;42.642;24.812;2023-04-30T08:40:26;96187.38;;;26.55;36.76
5954;BME280;3002;42.642;24.812;2023-04-30T08:43:18;96190.34;;;24.75;39.05
5954;BME280;3002;42.642;24.812;2023-04-30T08:45:46;96203.63;;;24.04;39.91
5954;BME280;3002;42.642;24.812;2023-04-30T08:48:12;96194.56;;;24.59;39.65
5954;BME280;3002;42.642;24.812;2023-04-30T08:50:40;96193.97;;;22.05;43.92
5954;BME280;3002;42.642;24.812;2023-04-30T08:53:07;96197.06;;;23.23;42.72
5954;BME280;3002;42.642;24.812;2023-04-30T08:55:33;96199.69;;;24.01;40.86
5954;BME280;3002;42.642;24.812;2023-04-30T08:57:59;96181.06;;;22.58;43.10
5954;BME280;3002;42.642;24.812;2023-04-30T09:00:24;96204.59;;;25.09;39.20
5954;BME280;3002;42.642;24.812;2023-04-30T09:02:52;96196.69;;;26.79;36.19
5954;BME280;3002;42.642;24.812;2023-04-30T09:05:17;96185.78;;;26.58;36.11
5954;BME280;3002;42.642;24.812;2023-04-30T09:07:44;96185.13;;;25.75;36.94
5954;BME280;3002;42.642;24.812;2023-04-30T09:10:18;96185.88;;;25.94;36.83
5954;BME280;3002;42.642;24.812;2023-04-30T09:13:00;96183.53;;;28.26;33.39
5954;BME280;3002;42.642;24.812;2023-04-30T09:15:26;96195.44;;;28.58;33.93
5954;BME280;3002;42.642;24.812;2023-04-30T09:20:34;96191.03;;;27.81;34.97
5954;BME280;3002;42.642;24.812;2023-04-30T09:23:07;96180.38;;;26.15;38.14
5954;BME280;3002;42.642;24.812;2023-04-30T09:25:40;96187.63;;;24.10;39.97
5954;BME280;3002;42.642;24.812;2023-04-30T09:28:13;96177.91;;;23.64;42.77
5954;BME280;3002;42.642;24.812;2023-04-30T09:30:40;96175.69;;;24.39;41.35
5954;BME280;3002;42.642;24.812;2023-04-30T09:33:06;96162.00;;;24.43;41.54
5954;BME280;3002;42.642;24.812;2023-04-30T09:35:36;96164.38;;;24.48;41.29
5954;BME280;3002;42.642;24.812;2023-04-30T09:38:06;96161.06;;;24.17;41.67
5954;BME280;3002;42.642;24.812;2023-04-30T09:40:39;96170.94;;;23.74;42.93
5954;BME280;3002;42.642;24.812;2023-04-30T09:43:06;96165.84;;;22.61;44.57
5954;BME280;3002;42.642;24.812;2023-04-30T09:45:42;96168.88;;;22.22;46.51
5954;BME280;3002;42.642;24.812;2023-04-30T09:48:09;96173.78;;;22.09;47.40
5954;BME280;3002;42.642;24.812;2023-04-30T09:50:38;96147.78;;;22.19;46.85
5954;BME280;3002;42.642;24.812;2023-04-30T09:53:11;96168.56;;;22.27;47.42
5954;BME280;3002;42.642;24.812;2023-04-30T09:55:46;96159.78;;;21.88;49.12
5954;BME280;3002;42.642;24.812;2023-04-30T09:58:13;96169.31;;;21.75;49.30
5954;BME280;3002;42.642;24.812;2023-04-30T10:00:39;96151.50;;;22.07;48.34
5954;BME280;3002;42.642;24.812;2023-04-30T10:03:10;96160.91;;;22.40;47.57
5954;BME280;3002;42.642;24.812;2023-04-30T10:05:39;96163.44;;;21.73;49.38
5954;BME280;3002;42.642;24.812;2023-04-30T10:08:26;96164.28;;;22.60;47.05
5954;BME280;3002;42.642;24.812;2023-04-30T10:11:00;96157.22;;;22.25;47.76
5954;BME280;3002;42.642;24.812;2023-04-30T10:13:39;96150.22;;;21.48;50.16
5954;BME280;3002;42.642;24.812;2023-04-30T10:16:11;96155.25;;;21.99;49.05
5954;BME280;3002;42.642;24.812;2023-04-30T10:18:44;96170.19;;;22.95;47.48
5954;BME280;3002;42.642;24.812;2023-04-30T10:21:12;96156.31;;;22.17;48.38
5954;BME280;3002;42.642;24.812;2023-04-30T10:23:39;96148.31;;;21.52;49.69
5954;BME280;3002;42.642;24.812;2023-04-30T10:26:09;96142.59;;;22.74;46.59
5954;BME280;3002;42.642;24.812;2023-04-30T10:28:36;96138.31;;;23.10;46.15
5954;BME280;3002;42.642;24.812;2023-04-30T10:31:03;96152.16;;;23.32;45.20
5954;BME280;3002;42.642;24.812;2023-04-30T10:33:54;96162.94;;;23.10;45.62
5954;BME280;3002;42.642;24.812;2023-04-30T10:36:28;96150.41;;;22.76;46.55
5954;BME280;3002;42.642;24.812;2023-04-30T10:38:58;96159.44;;;22.16;47.55
5954;BME280;3002;42.642;24.812;2023-04-30T10:41:25;96151.47;;;20.89;50.53
5954;BME280;3002;42.642;24.812;2023-04-30T10:43:55;96155.28;;;22.26;50.16
5954;BME280;3002;42.642;24.812;2023-04-30T10:46:22;96173.03;;;22.12;49.15
5954;BME280;3002;42.642;24.812;2023-04-30T10:48:48;96142.91;;;22.35;49.86
5954;BME280;3002;42.642;24.812;2023-04-30T10:51:14;96136.66;;;21.82;48.62
5954;BME280;3002;42.642;24.812;2023-04-30T10:53:41;96159.63;;;22.04;49.96
5954;BME280;3002;42.642;24.812;2023-04-30T10:56:06;96173.41;;;21.88;51.09
5954;BME280;3002;42.642;24.812;2023-04-30T10:58:37;96153.78;;;22.05;50.54
5954;BME280;3002;42.642;24.812;2023-04-30T11:01:14;96162.50;;;22.75;49.58
5954;BME280;3002;42.642;24.812;2023-04-30T11:03:41;96160.88;;;23.00;49.11
5954;BME280;3002;42.642;24.812;2023-04-30T11:06:15;96165.59;;;23.03;46.53
5954;BME280;3002;42.642;24.812;2023-04-30T11:08:45;96155.38;;;23.85;44.46
5954;BME280;3002;42.642;24.812;2023-04-30T11:11:11;96142.28;;;24.19;44.13
5954;BME280;3002;42.642;24.812;2023-04-30T11:13:46;96134.75;;;24.93;43.04
5954;BME280;3002;42.642;24.812;2023-04-30T11:16:12;96114.22;;;24.37;43.76
5954;BME280;3002;42.642;24.812;2023-04-30T11:18:45;96133.88;;;24.56;43.86
5954;BME280;3002;42.642;24.812;2023-04-30T11:21:12;96126.28;;;24.32;44.08
5954;BME280;3002;42.642;24.812;2023-04-30T11:23:42;96123.72;;;24.61;43.61
5954;BME280;3002;42.642;24.812;2023-04-30T11:26:08;96131.94;;;24.61;43.23
5954;BME280;3002;42.642;24.812;2023-04-30T11:28:36;96111.28;;;24.04;44.90
5954;BME280;3002;42.642;24.812;2023-04-30T11:31:02;96129.56;;;23.86;45.83
5954;BME280;3002;42.642;24.812;2023-04-30T11:33:30;96103.41;;;23.41;45.83
5954;BME280;3002;42.642;24.812;2023-04-30T11:35:57;96105.31;;;22.59;44.19
5954;BME280;3002;42.642;24.812;2023-04-30T11:38:36;96109.41;;;23.57;42.77
5954;BME280;3002;42.642;24.812;2023-04-30T11:41:03;96120.56;;;23.38;42.09
5954;BME280;3002;42.642;24.812;2023-04-30T11:43:33;96115.59;;;23.06;39.67
5954;BME280;3002;42.642;24.812;2023-04-30T11:46:16;96113.75;;;22.80;40.28
5954;BME280;3002;42.642;24.812;2023-04-30T11:48:45;96094.31;;;22.52;40.44
5954;BME280;3002;42.642;24.812;2023-04-30T11:51:17;96115.91;;;22.64;40.43
5954;BME280;3002;42.642;24.812;2023-04-30T11:53:48;96116.22;;;22.89;42.40
5954;BME280;3002;42.642;24.812;2023-04-30T11:56:21;96109.06;;;22.81;43.52
5954;BME280;3002;42.642;24.812;2023-04-30T11:58:47;96104.53;;;22.92;44.98
5954;BME280;3002;42.642;24.812;2023-04-30T12:01:13;96114.03;;;23.09;44.00
5954;BME280;3002;42.642;24.812;2023-04-30T12:03:49;96107.06;;;23.59;42.58
5954;BME280;3002;42.642;24.812;2023-04-30T12:06:25;96085.06;;;25.16;40.00
5954;BME280;3002;42.642;24.812;2023-04-30T12:08:55;96072.06;;;27.45;36.83
5954;BME280;3002;42.642;24.812;2023-04-30T12:11:25;96080.63;;;29.95;33.65
5954;BME280;3002;42.642;24.812;2023-04-30T12:16:17;96062.94;;;29.19;31.47
5954;BME280;3002;42.642;24.812;2023-04-30T12:18:44;96068.50;;;24.66;37.06
5954;BME280;3002;42.642;24.812;2023-04-30T12:21:10;96060.09;;;24.19;38.53
5954;BME280;3002;42.642;24.812;2023-04-30T12:23:36;96080.59;;;23.26;41.96
5954;BME280;3002;42.642;24.812;2023-04-30T12:26:01;96070.72;;;23.11;39.17
5954;BME280;3002;42.642;24.812;2023-04-30T12:28:27;96055.38;;;24.16;38.26
5954;BME280;3002;42.642;24.812;2023-04-30T12:30:53;96058.72;;;25.93;35.67
5954;BME280;3002;42.642;24.812;2023-04-30T12:33:18;96040.25;;;26.01;35.00
5954;BME280;3002;42.642;24.812;2023-04-30T12:35:44;96036.09;;;27.18;33.42
5954;BME280;3002;42.642;24.812;2023-04-30T12:38:09;96062.47;;;27.15;33.31
5954;BME280;3002;42.642;24.812;2023-04-30T12:40:35;96026.25;;;25.24;36.47
5954;BME280;3002;42.642;24.812;2023-04-30T12:43:03;96056.81;;;23.92;38.33
5954;BME280;3002;42.642;24.812;2023-04-30T12:45:47;96054.41;;;25.88;35.07
5954;BME280;3002;42.642;24.812;2023-04-30T12:48:16;96046.97;;;24.71;36.65
5954;BME280;3002;42.642;24.812;2023-04-30T12:50:53;96053.69;;;25.34;36.54
5954;BME280;3002;42.642;24.812;2023-04-30T12:53:19;96048.19;;;25.74;35.48
5954;BME280;3002;42.642;24.812;2023-04-30T12:56:08;96044.28;;;25.35;36.19
5954;BME280;3002;42.642;24.812;2023-04-30T12:58:34;96049.75;;;23.84;39.70
5954;BME280;3002;42.642;24.812;2023-04-30T13:00:59;96049.22;;;23.09;40.18
5954;BME280;3002;42.642;24.812;2023-04-30T13:03:26;96040.88;;;24.16;38.80
5954;BME280;3002;42.642;24.812;2023-04-30T13:05:51;96034.16;;;23.33;39.90
5954;BME280;3002;42.642;24.812;2023-04-30T13:08:18;96043.59;;;23.43;40.26
5954;BME280;3002;42.642;24.812;2023-04-30T13:10:46;96047.56;;;22.98;41.88
5954;BME280;3002;42.642;24.812;2023-04-30T13:13:14;96054.09;;;23.34;41.36
5954;BME280;3002;42.642;24.812;2023-04-30T13:15:41;96062.91;;;23.13;40.44
5954;BME280;3002;42.642;24.812;2023-04-30T13:18:07;96049.03;;;23.36;40.07
5954;BME280;3002;42.642;24.812;2023-04-30T13:20:37;96056.16;;;24.20;39.23
5954;BME280;3002;42.642;24.812;2023-04-30T13:23:03;96063.75;;;23.72;39.69
5954;BME280;3002;42.642;24.812;2023-04-30T13:25:29;96033.59;;;23.65;38.82
5954;BME280;3002;42.642;24.812;2023-04-30T13:27:55;96025.28;;;23.54;40.28
5954;BME280;3002;42.642;24.812;2023-04-30T13:30:22;96040.50;;;22.96;40.55